Time;durP1;ratioP1;P1;durP2;ratioP2;P2;SDS_P1;SDS_P2;PMS_P1;PMS_P2;Temp;Humidity;BMP_temperature;BMP_pressure;BME280_temperature;BME280_humidity;BME280_pressure;Samples;Min_cycle;Max_cycle;Signal;HPM_P1;HPM_P2
2021/11/30 00:01:44;;;;;;;9.80;7.53;;;;;;;2.24;100.00;98005.91;5137112;27;20236;-65
2021/11/30 00:04:11;;;;;;;7.87;6.60;;;;;;;2.31;100.00;98006.50;5138387;27;20288;-65
2021/11/30 00:06:37;;;;;;;9.33;6.83;;;;;;;2.23;100.00;98004.22;5139319;27;20205;-65
2021/11/30 00:10:42;;;;;;;10.13;6.87;;;;;;;2.21;100.00;98011.22;5137172;27;20217;-65
2021/11/30 00:12:12;;;;;;;9.37;6.90;;;;;;;2.23;100.00;98014.63;5129762;27;20209;-65
2021/11/30 00:14:40;;;;;;;11.60;7.03;;;;;;;2.26;100.00;98014.50;5138722;27;20209;-65
2021/11/30 00:17:08;;;;;;;10.47;6.67;;;;;;;2.25;100.00;98017.16;5140589;27;20213;-65
2021/11/30 00:19:35;;;;;;;10.83;7.13;;;;;;;2.21;100.00;98026.84;5139657;27;20216;-65
2021/11/30 00:22:02;;;;;;;9.37;6.70;;;;;;;2.21;100.00;98020.81;5138798;27;20240;-65
2021/11/30 00:24:30;;;;;;;7.27;6.47;;;;;;;2.20;100.00;98008.69;5138455;27;20215;-65
2021/11/30 00:26:57;;;;;;;7.73;6.07;;;;;;;2.22;100.00;98023.38;5140174;27;20239;-65
2021/11/30 00:29:24;;;;;;;8.63;6.67;;;;;;;2.17;100.00;98033.13;5139423;27;20307;-65
2021/11/30 00:31:51;;;;;;;7.83;6.40;;;;;;;2.10;100.00;98029.03;5138835;27;20319;-65
2021/11/30 00:34:18;;;;;;;8.37;6.83;;;;;;;2.06;100.00;98032.66;5138342;27;20679;-65
2021/11/30 00:36:44;;;;;;;9.70;6.80;;;;;;;1.93;100.00;98036.63;5138482;27;20209;-65
2021/11/30 00:39:11;;;;;;;9.03;6.33;;;;;;;1.89;100.00;98024.63;5139753;27;20205;-65
2021/11/30 00:41:45;;;;;;;7.77;6.23;;;;;;;1.86;100.00;98029.09;5138462;27;20233;-65
2021/11/30 00:44:14;;;;;;;9.43;6.70;;;;;;;1.82;100.00;98027.50;5138515;27;20294;-65
2021/11/30 00:46:41;;;;;;;8.50;6.63;;;;;;;1.78;100.00;98031.97;5139357;27;20216;-65
2021/11/30 00:49:09;;;;;;;10.13;6.80;;;;;;;1.70;100.00;98033.13;5138065;27;20304;-65
2021/11/30 00:51:37;;;;;;;8.60;6.80;;;;;;;1.63;100.00;98032.53;5137890;27;20217;-65
2021/11/30 00:54:07;;;;;;;8.03;6.77;;;;;;;1.72;100.00;98031.34;5138021;27;20227;-65
2021/11/30 00:56:34;;;;;;;8.43;6.60;;;;;;;1.73;100.00;98033.03;5139874;27;20579;-65
2021/11/30 00:59:02;;;;;;;9.80;7.10;;;;;;;1.73;100.00;98031.28;5125843;27;20686;-65
2021/11/30 01:01:31;;;;;;;9.97;6.80;;;;;;;1.75;100.00;98047.72;5136661;27;20240;-65
2021/11/30 01:03:58;;;;;;;8.40;6.47;;;;;;;1.82;100.00;98041.38;5138064;27;20217;-65
2021/11/30 01:06:24;;;;;;;8.63;5.90;;;;;;;1.87;100.00;98038.59;5140532;27;20217;-65
2021/11/30 01:08:51;;;;;;;9.97;6.57;;;;;;;1.90;100.00;98041.94;5137698;27;20666;-65
2021/11/30 01:11:18;;;;;;;11.37;7.50;;;;;;;1.92;100.00;98037.53;5138014;27;20209;-65
2021/11/30 01:13:45;;;;;;;9.87;6.87;;;;;;;1.93;100.00;98052.28;5137864;27;20220;-65
2021/11/30 01:16:13;;;;;;;11.67;7.37;;;;;;;1.93;100.00;98056.63;5138505;27;20217;-65
2021/11/30 01:18:39;;;;;;;9.73;6.50;;;;;;;1.95;100.00;98063.47;5150021;27;20220;-65
2021/11/30 01:21:06;;;;;;;7.57;6.40;;;;;;;1.95;100.00;98066.09;5137554;27;20211;-65
2021/11/30 01:23:33;;;;;;;9.60;6.63;;;;;;;2.00;100.00;98069.38;5137746;27;20234;-65
2021/11/30 01:26:01;;;;;;;10.13;6.00;;;;;;;2.01;100.00;98076.28;5139505;27;20216;-65
2021/11/30 01:28:28;;;;;;;7.50;6.33;;;;;;;2.03;100.00;98074.47;5136254;27;20305;-65
2021/11/30 01:30:55;;;;;;;10.43;6.77;;;;;;;2.01;100.00;98075.41;5137436;27;20224;-65
2021/11/30 01:33:23;;;;;;;7.93;6.20;;;;;;;2.04;100.00;98076.19;5137199;27;20213;-65
2021/11/30 01:35:50;;;;;;;8.33;6.60;;;;;;;2.03;100.00;98082.28;5139495;27;20209;-65
2021/11/30 01:38:17;;;;;;;8.60;6.30;;;;;;;2.00;100.00;98092.84;5137775;27;20213;-65
2021/11/30 01:40:44;;;;;;;9.77;6.20;;;;;;;2.00;100.00;98095.44;5137022;27;20215;-65
2021/11/30 01:43:16;;;;;;;7.47;5.93;;;;;;;2.01;100.00;98085.84;5137207;27;20241;-65
2021/11/30 01:45:46;;;;;;;8.20;6.37;;;;;;;2.01;100.00;98089.31;5138499;27;20238;-65
2021/11/30 01:51:01;;;;;;;7.47;5.30;;;;;;;2.05;100.00;98093.53;5136980;27;20213;-65
2021/11/30 01:53:28;;;;;;;9.60;6.00;;;;;;;2.09;100.00;98100.31;5137088;27;20209;-65
2021/11/30 01:55:55;;;;;;;11.50;5.87;;;;;;;2.04;100.00;98096.19;5138091;27;20584;-65
2021/11/30 01:58:22;;;;;;;10.23;5.67;;;;;;;2.04;100.00;98094.44;5136979;27;20292;-65
2021/11/30 02:00:49;;;;;;;8.77;5.60;;;;;;;2.03;100.00;98100.53;5136537;27;20205;-65
2021/11/30 02:03:16;;;;;;;9.43;5.33;;;;;;;2.05;100.00;98098.75;5137310;27;21398;-65
2021/11/30 02:05:42;;;;;;;7.37;5.33;;;;;;;2.10;100.00;98101.16;5137523;27;20201;-65
2021/11/30 02:08:10;;;;;;;7.60;5.00;;;;;;;2.07;100.00;98096.91;5136763;27;20209;-65
2021/11/30 02:10:38;;;;;;;9.47;5.27;;;;;;;2.09;100.00;98100.31;5136911;27;20258;-65
2021/11/30 02:13:05;;;;;;;5.97;5.03;;;;;;;2.19;100.00;98106.03;5138010;27;20617;-65
2021/11/30 02:15:37;;;;;;;5.43;4.60;;;;;;;2.14;100.00;98105.38;5137941;27;20209;-65
2021/11/30 02:18:06;;;;;;;7.30;4.67;;;;;;;2.15;100.00;98100.09;5136858;27;20218;-65
2021/11/30 02:20:37;;;;;;;8.33;5.23;;;;;;;2.17;100.00;98100.91;5135130;27;20247;-65
2021/11/30 02:23:06;;;;;;;5.37;4.43;;;;;;;2.16;100.00;98099.19;5137584;27;20241;-65
2021/11/30 02:25:32;;;;;;;6.83;5.07;;;;;;;2.16;100.00;98103.56;5124331;27;20244;-65
2021/11/30 02:27:59;;;;;;;8.27;4.73;;;;;;;2.17;100.00;98102.66;5136514;27;20679;-65
2021/11/30 02:30:25;;;;;;;8.83;4.40;;;;;;;2.13;100.00;98112.34;5136323;27;20220;-65
2021/11/30 02:32:52;;;;;;;6.83;4.40;;;;;;;2.13;100.00;98101.03;5137101;27;20235;-65
2021/11/30 02:35:19;;;;;;;5.40;3.93;;;;;;;2.14;100.00;98106.22;5136970;27;20216;-65
2021/11/30 02:37:50;;;;;;;5.87;4.00;;;;;;;2.17;100.00;98105.25;5136472;27;20213;-65
2021/11/30 02:40:17;;;;;;;6.30;4.17;;;;;;;2.18;100.00;98110.41;5136375;27;20209;-65
2021/11/30 02:42:43;;;;;;;4.93;3.80;;;;;;;2.18;100.00;98113.03;5137316;27;20275;-65
2021/11/30 02:45:10;;;;;;;5.47;3.50;;;;;;;2.18;100.00;98115.63;5135166;27;20229;-65
2021/11/30 02:47:37;;;;;;;4.37;3.40;;;;;;;2.25;100.00;98111.88;5136133;27;20686;-65
2021/11/30 02:50:05;;;;;;;4.77;3.60;;;;;;;2.19;100.00;98112.13;5136538;27;20209;-65
2021/11/30 02:52:31;;;;;;;5.23;3.30;;;;;;;2.15;100.00;98110.50;5138224;27;20693;-65
2021/11/30 02:54:59;;;;;;;5.73;3.30;;;;;;;2.14;100.00;98108.81;5137195;27;20208;-66
2021/11/30 02:57:26;;;;;;;4.80;3.13;;;;;;;2.09;100.00;98113.34;5136456;27;20213;-66
2021/11/30 02:59:55;;;;;;;4.10;2.90;;;;;;;2.13;100.00;98107.13;5136673;27;20214;-65
2021/11/30 03:02:24;;;;;;;3.63;2.50;;;;;;;2.14;100.00;98111.41;5138578;27;20241;-66
2021/11/30 03:04:53;;;;;;;3.73;2.73;;;;;;;2.06;100.00;98113.47;5136687;27;20209;-65
2021/11/30 03:07:21;;;;;;;3.53;3.10;;;;;;;1.93;100.00;98116.56;5136151;27;20219;-66
2021/11/30 03:09:48;;;;;;;3.73;2.90;;;;;;;1.79;100.00;98113.59;5136022;27;20297;-66
2021/11/30 03:12:17;;;;;;;2.60;2.33;;;;;;;1.74;100.00;98118.97;5137439;27;20590;-65
2021/11/30 03:14:44;;;;;;;2.67;2.47;;;;;;;1.68;100.00;98118.31;5128091;27;20209;-65
2021/11/30 03:17:11;;;;;;;5.53;3.17;;;;;;;1.66;100.00;98113.16;5139993;27;20209;-65
2021/11/30 03:19:37;;;;;;;4.20;2.83;;;;;;;1.62;100.00;98113.31;5139892;27;20213;-65
2021/11/30 03:22:06;;;;;;;4.80;2.70;;;;;;;1.53;100.00;98104.06;5140965;27;20581;-65
2021/11/30 03:24:33;;;;;;;4.27;2.63;;;;;;;1.60;100.00;98100.34;5127902;27;20241;-65
2021/11/30 03:27:00;;;;;;;4.30;2.57;;;;;;;1.49;100.00;98107.69;5140080;27;20205;-66
2021/11/30 03:29:28;;;;;;;2.20;2.00;;;;;;;1.53;100.00;98106.66;5139728;27;20299;-65
2021/11/30 03:32:03;;;;;;;2.20;2.00;;;;;;;1.66;100.00;98105.34;5141376;27;20213;-65
2021/11/30 03:34:28;;;;;;;5.30;2.20;;;;;;;1.80;100.00;98102.25;5128320;27;20217;-65
2021/11/30 03:36:56;;;;;;;3.60;2.13;;;;;;;1.89;100.00;98096.75;5139233;27;20232;-65
2021/11/30 03:39:26;;;;;;;2.93;1.90;;;;;;;1.98;100.00;98092.06;5138344;27;20300;-65
2021/11/30 03:41:55;;;;;;;2.33;1.93;;;;;;;2.00;100.00;98087.63;5142212;27;20299;-66
2021/11/30 03:44:24;;;;;;;2.10;1.80;;;;;;;2.05;100.00;98096.13;5139205;27;20237;-65
2021/11/30 03:46:52;;;;;;;3.53;1.97;;;;;;;2.20;100.00;98097.34;5139644;27;20221;-66
2021/11/30 03:49:21;;;;;;;3.97;2.30;;;;;;;2.21;100.00;98094.66;5139328;27;20219;-65
2021/11/30 03:51:48;;;;;;;2.57;1.63;;;;;;;2.31;100.00;98080.38;5141533;27;20209;-65
2021/11/30 03:54:17;;;;;;;2.97;1.83;;;;;;;2.33;100.00;98078.53;5139282;27;20212;-65
2021/11/30 03:56:43;;;;;;;2.83;2.30;;;;;;;2.39;100.00;98067.06;5139759;27;20209;-65
2021/11/30 03:59:11;;;;;;;3.53;2.00;;;;;;;2.34;100.00;98071.59;5139354;27;20209;-65
2021/11/30 04:01:37;;;;;;;2.20;1.90;;;;;;;2.34;100.00;98064.59;5141263;27;20670;-65
2021/11/30 04:04:20;;;;;;;3.10;1.73;;;;;;;2.42;100.00;98073.00;5137126;27;20226;-65
2021/11/30 04:06:47;;;;;;;2.20;1.80;;;;;;;2.45;100.00;98070.25;5139531;27;20209;-65
2021/11/30 04:09:14;;;;;;;1.90;1.70;;;;;;;2.46;100.00;98063.31;5139751;27;20262;-66
2021/11/30 04:11:40;;;;;;;2.83;1.93;;;;;;;2.45;100.00;98062.44;5139560;27;20209;-65
2021/11/30 04:14:07;;;;;;;2.90;1.77;;;;;;;2.45;100.00;98062.44;5139122;27;20214;-65
2021/11/30 04:16:34;;;;;;;2.40;1.67;;;;;;;2.43;100.00;98053.84;5138840;27;20674;-65
2021/11/30 04:19:01;;;;;;;1.80;1.70;;;;;;;2.42;100.00;98052.13;5140493;27;20689;-65
2021/11/30 04:21:29;;;;;;;2.50;1.90;;;;;;;2.37;100.00;98064.50;5139760;27;20209;-65
2021/11/30 04:23:55;;;;;;;3.40;2.03;;;;;;;2.43;100.00;98048.63;5138233;27;20248;-65
2021/11/30 04:26:23;;;;;;;3.17;1.87;;;;;;;2.48;100.00;98045.81;5138440;27;20221;-66
2021/11/30 04:28:51;;;;;;;2.10;1.70;;;;;;;2.41;100.00;98034.78;5140022;27;20213;-66
2021/11/30 04:31:17;;;;;;;2.17;1.60;;;;;;;2.40;100.00;98037.44;5137830;27;20213;-65
2021/11/30 04:33:44;;;;;;;2.23;1.80;;;;;;;2.42;100.00;98036.50;5138609;27;20214;-65
2021/11/30 04:36:11;;;;;;;2.07;1.73;;;;;;;2.40;100.00;98038.28;5138511;27;20220;-65
2021/11/30 04:38:39;;;;;;;3.17;1.73;;;;;;;2.35;100.00;98029.81;5139679;27;20228;-65
2021/11/30 04:41:07;;;;;;;2.27;2.00;;;;;;;2.31;100.00;98032.56;5139795;27;20217;-65
2021/11/30 04:43:35;;;;;;;1.80;1.60;;;;;;;2.25;100.00;98032.81;5138416;27;20239;-66
2021/11/30 04:46:06;;;;;;;3.30;1.83;;;;;;;2.18;100.00;98041.78;5138426;27;20639;-65
2021/11/30 04:48:34;;;;;;;5.03;2.00;;;;;;;2.12;100.00;98042.88;5140535;27;20266;-65
2021/11/30 04:51:02;;;;;;;3.03;1.53;;;;;;;2.05;100.00;98035.31;5138737;27;20205;-65
2021/11/30 04:53:31;;;;;;;2.53;1.90;;;;;;;2.04;100.00;98034.50;5138878;27;20213;-65
2021/11/30 04:56:00;;;;;;;2.53;2.07;;;;;;;1.99;100.00;98036.41;5136771;27;20213;-65
2021/11/30 04:58:27;;;;;;;2.57;2.13;;;;;;;2.01;100.00;98034.59;5139597;27;20236;-65
2021/11/30 05:00:54;;;;;;;5.47;1.90;;;;;;;2.06;100.00;98027.44;5125472;27;20738;-66
2021/11/30 05:03:20;;;;;;;4.27;1.90;;;;;;;2.05;100.00;98017.06;5138100;27;20236;-65
2021/11/30 05:05:47;;;;;;;5.47;1.90;;;;;;;2.07;100.00;98016.13;5137749;27;20205;-65
2021/11/30 05:08:13;;;;;;;2.93;1.90;;;;;;;2.08;100.00;98009.16;5139767;27;20218;-66
2021/11/30 05:10:40;;;;;;;3.50;2.00;;;;;;;2.13;100.00;98015.88;5138373;27;20275;-66
2021/11/30 05:13:08;;;;;;;2.57;1.67;;;;;;;2.13;100.00;98023.69;5138019;27;20205;-66
2021/11/30 05:15:34;;;;;;;3.27;2.00;;;;;;;2.14;100.00;98022.78;5137497;27;20205;-66
2021/11/30 05:18:01;;;;;;;4.17;2.30;;;;;;;2.12;100.00;98016.78;5139118;27;20219;-66
2021/11/30 05:20:28;;;;;;;6.03;2.33;;;;;;;2.08;100.00;98009.97;5138629;27;20220;-65
2021/11/30 05:22:55;;;;;;;3.10;2.50;;;;;;;2.07;100.00;98017.84;5136222;27;20233;-65
2021/11/30 05:25:23;;;;;;;4.83;2.47;;;;;;;2.03;100.00;98014.50;5137678;27;20231;-65
2021/11/30 05:27:50;;;;;;;2.70;2.13;;;;;;;2.04;100.00;98005.81;5138907;27;20757;-65
2021/11/30 05:30:20;;;;;;;2.80;1.97;;;;;;;2.04;100.00;98003.22;5138389;27;20752;-65
2021/11/30 05:32:48;;;;;;;4.43;2.23;;;;;;;2.02;100.00;97999.78;5137257;27;20216;-65
2021/11/30 05:35:14;;;;;;;3.23;2.07;;;;;;;2.00;100.00;97999.00;5137528;27;20213;-65
2021/11/30 05:37:41;;;;;;;4.07;2.23;;;;;;;1.96;100.00;98010.44;5138780;27;20693;-65
2021/11/30 05:40:09;;;;;;;2.47;1.90;;;;;;;2.01;100.00;98002.44;5138187;27;20213;-65
2021/11/30 05:42:36;;;;;;;2.73;2.10;;;;;;;2.03;100.00;98001.47;5136958;27;20697;-65
2021/11/30 05:45:02;;;;;;;5.70;3.27;;;;;;;2.02;100.00;98007.63;5136886;27;20255;-65
2021/11/30 05:47:30;;;;;;;3.13;2.47;;;;;;;1.99;100.00;98004.28;5136742;27;21113;-65
2021/11/30 05:49:57;;;;;;;2.73;2.50;;;;;;;2.00;100.00;97996.41;5138202;27;20223;-65
2021/11/30 05:52:24;;;;;;;5.23;2.57;;;;;;;1.99;100.00;97991.25;5136907;27;20219;-65
2021/11/30 05:54:52;;;;;;;3.57;3.10;;;;;;;1.95;100.00;97997.47;5137358;27;20217;-65
2021/11/30 05:57:21;;;;;;;5.03;3.00;;;;;;;1.97;100.00;97993.06;5138705;27;20214;-65
2021/11/30 05:59:48;;;;;;;3.53;2.90;;;;;;;1.96;100.00;97986.16;5137620;27;20220;-65
2021/11/30 06:02:15;;;;;;;4.37;3.17;;;;;;;1.81;100.00;97979.75;5137007;27;20224;-65
2021/11/30 06:04:43;;;;;;;4.53;2.87;;;;;;;1.78;100.00;97979.84;5137018;27;20236;-65
2021/11/30 06:07:09;;;;;;;5.23;3.23;;;;;;;1.73;100.00;97981.78;5138598;27;20309;-65
2021/11/30 06:09:37;;;;;;;4.93;3.17;;;;;;;1.76;100.00;97980.81;5138146;27;20217;-65
2021/11/30 06:12:05;;;;;;;3.97;3.10;;;;;;;1.82;100.00;97976.25;5136975;27;20270;-65
2021/11/30 06:14:32;;;;;;;3.53;3.13;;;;;;;1.79;100.00;97981.56;5135123;27;20213;-65
2021/11/30 06:16:58;;;;;;;3.77;2.77;;;;;;;1.75;100.00;97974.78;5136830;27;20205;-65
2021/11/30 06:19:25;;;;;;;11.23;5.20;;;;;;;1.72;100.00;97964.44;5138103;27;20210;-65
2021/11/30 06:21:53;;;;;;;3.60;3.30;;;;;;;1.66;100.00;97969.06;5136959;27;20217;-65
2021/11/30 06:24:19;;;;;;;5.07;3.60;;;;;;;1.60;100.00;97972.72;5136536;27;20243;-65
2021/11/30 06:26:48;;;;;;;4.30;3.30;;;;;;;1.51;100.00;97964.38;5138026;27;20213;-65
2021/11/30 06:29:15;;;;;;;6.17;4.03;;;;;;;1.47;100.00;97958.44;5137988;27;20209;-65
2021/11/30 06:31:42;;;;;;;5.63;4.07;;;;;;;1.45;100.00;97959.41;5136387;27;20757;-66
2021/11/30 06:34:08;;;;;;;6.00;3.83;;;;;;;1.41;100.00;97963.03;5136733;27;20213;-65
2021/11/30 06:36:35;;;;;;;5.97;4.33;;;;;;;1.40;100.00;97954.38;5137956;27;20216;-66
2021/11/30 06:39:03;;;;;;;5.70;4.23;;;;;;;1.41;100.00;97948.25;5138198;27;20211;-66
2021/11/30 06:41:29;;;;;;;4.73;4.13;;;;;;;1.33;100.00;97955.50;5135665;27;20221;-66
2021/11/30 06:43:56;;;;;;;6.60;4.17;;;;;;;1.34;100.00;97940.69;5136462;27;20241;-66
2021/11/30 06:46:23;;;;;;;4.87;3.87;;;;;;;1.38;100.00;97945.78;5137520;27;20209;-66
2021/11/30 06:48:49;;;;;;;5.47;4.50;;;;;;;1.28;100.00;97936.56;5141363;27;20215;-66
2021/11/30 06:51:16;;;;;;;8.67;4.77;;;;;;;1.25;100.00;97936.69;5140710;27;20628;-65
2021/11/30 06:53:43;;;;;;;5.87;4.37;;;;;;;1.18;100.00;97935.19;5140537;27;20209;-66
2021/11/30 06:56:11;;;;;;;6.27;4.77;;;;;;;1.14;100.00;97924.97;5140815;27;20308;-65
2021/11/30 06:58:38;;;;;;;8.37;5.20;;;;;;;1.09;100.00;97926.88;5142719;27;20212;-65
2021/11/30 07:01:07;;;;;;;5.67;4.97;;;;;;;1.09;100.00;97925.13;5140391;27;20655;-65
2021/11/30 07:03:34;;;;;;;6.30;4.40;;;;;;;1.12;100.00;97925.00;5140327;27;20316;-65
2021/11/30 07:06:06;;;;;;;7.67;5.33;;;;;;;1.18;100.00;97924.78;5138793;27;20213;-65
2021/11/30 07:08:52;;;;;;;5.93;4.50;;;;;;;1.14;100.00;97920.63;5141560;27;20266;-65
2021/11/30 07:11:33;;;;;;;6.00;4.67;;;;;;;1.16;100.00;97904.94;5140362;27;20220;-64
2021/11/30 07:14:00;;;;;;;5.30;4.40;;;;;;;1.08;100.00;97913.03;5141684;27;20583;-65
2021/11/30 07:16:26;;;;;;;6.17;4.37;;;;;;;1.08;100.00;97907.81;5141228;27;20223;-65
2021/11/30 07:18:53;;;;;;;5.60;4.37;;;;;;;1.08;100.00;97907.81;5140391;27;20292;-65
2021/11/30 07:21:19;;;;;;;4.50;4.10;;;;;;;1.14;100.00;97896.31;5139977;27;20212;-65
2021/11/30 07:23:46;;;;;;;4.80;3.50;;;;;;;1.21;100.00;97903.00;5140694;27;20239;-65
2021/11/30 07:26:13;;;;;;;6.70;4.30;;;;;;;1.17;100.00;97896.25;5141590;27;20304;-65
2021/11/30 07:28:40;;;;;;;5.03;3.80;;;;;;;1.17;100.00;97891.84;5139675;27;20212;-65
2021/11/30 07:31:11;;;;;;;5.83;4.23;;;;;;;1.14;100.00;97897.19;5138856;27;20749;-65
2021/11/30 07:33:38;;;;;;;5.77;4.50;;;;;;;1.14;100.00;97892.00;5140052;27;20232;-65
2021/11/30 07:36:06;;;;;;;6.10;3.83;;;;;;;1.20;100.00;97886.56;5141324;27;20213;-65
2021/11/30 07:38:32;;;;;;;4.60;3.80;;;;;;;1.18;100.00;97890.94;5139513;27;20218;-65
2021/11/30 07:40:59;;;;;;;5.10;3.57;;;;;;;1.24;100.00;97880.31;5139721;27;20213;-65
2021/11/30 07:43:26;;;;;;;5.83;4.03;;;;;;;1.24;100.00;97887.28;5140400;27;20220;-65
2021/11/30 07:45:54;;;;;;;5.43;3.80;;;;;;;1.31;100.00;97876.59;5141542;27;20209;-65
2021/11/30 07:48:23;;;;;;;4.30;3.33;;;;;;;1.34;100.00;97879.09;5139393;27;20214;-65
2021/11/30 07:50:50;;;;;;;2.93;2.63;;;;;;;1.43;100.00;97857.06;5139710;27;20292;-65
2021/11/30 07:53:17;;;;;;;3.77;2.93;;;;;;;1.41;100.00;97871.91;5140293;27;20555;-65
2021/11/30 07:55:44;;;;;;;3.40;2.70;;;;;;;1.43;100.00;97878.75;5141011;27;20298;-65
2021/11/30 07:58:11;;;;;;;3.10;2.80;;;;;;;1.41;100.00;97874.50;5137784;27;20209;-65
2021/11/30 08:00:38;;;;;;;2.60;2.40;;;;;;;1.42;100.00;97874.44;5138052;27;20614;-65
2021/11/30 08:03:06;;;;;;;3.40;2.50;;;;;;;1.38;100.00;97885.03;5139590;27;20213;-65
2021/11/30 08:05:33;;;;;;;3.77;2.47;;;;;;;1.44;100.00;97871.78;5140843;27;20224;-65
2021/11/30 08:08:00;;;;;;;3.87;2.90;;;;;;;1.36;100.00;97877.25;5139348;27;20210;-65
2021/11/30 08:10:28;;;;;;;2.80;2.10;;;;;;;1.37;100.00;97879.00;5139417;27;20228;-65
2021/11/30 08:12:55;;;;;;;2.90;2.60;;;;;;;1.34;100.00;97871.28;5139536;27;20217;-65
2021/11/30 08:15:21;;;;;;;3.03;2.20;;;;;;;1.33;100.00;97861.78;5141072;27;20216;-65
2021/11/30 08:17:48;;;;;;;4.47;2.57;;;;;;;1.35;100.00;97854.75;5138882;27;20308;-65
2021/11/30 08:20:17;;;;;;;3.70;2.60;;;;;;;1.41;100.00;97844.09;5139192;27;20205;-65
2021/11/30 08:22:45;;;;;;;2.53;2.30;;;;;;;1.34;100.00;97837.44;5139654;27;20587;-65
2021/11/30 08:25:13;;;;;;;3.27;2.20;;;;;;;1.37;100.00;97828.66;5138966;27;20723;-65
2021/11/30 08:27:40;;;;;;;3.20;2.33;;;;;;;1.43;100.00;97816.28;5138774;27;20213;-65
2021/11/30 08:30:08;;;;;;;2.50;2.30;;;;;;;1.44;100.00;97823.16;5139010;27;20220;-65
2021/11/30 08:32:36;;;;;;;2.60;2.37;;;;;;;1.40;100.00;97821.59;5135829;27;20210;-65
2021/11/30 08:35:04;;;;;;;5.60;2.03;;;;;;;1.46;100.00;97823.94;5139366;27;20682;-65
2021/11/30 08:37:33;;;;;;;2.33;2.13;;;;;;;1.56;100.00;97833.13;5138110;27;20270;-66
2021/11/30 08:40:00;;;;;;;2.90;2.40;;;;;;;1.63;100.00;97829.38;5137262;27;20312;-66
2021/11/30 08:42:27;;;;;;;2.90;2.03;;;;;;;1.62;100.00;97826.81;5135687;27;20213;-66
2021/11/30 08:44:54;;;;;;;3.63;2.23;;;;;;;1.57;100.00;97819.19;5129340;27;20247;-66
2021/11/30 08:47:23;;;;;;;2.43;1.90;;;;;;;1.57;100.00;97813.13;5139759;27;20245;-66
2021/11/30 08:49:51;;;;;;;3.00;2.40;;;;;;;1.49;100.00;97816.03;5129819;27;20302;-64
2021/11/30 08:52:24;;;;;;;3.57;2.63;;;;;;;1.49;100.00;97803.03;5137394;27;20292;-64
2021/11/30 08:54:52;;;;;;;2.43;1.83;;;;;;;1.53;100.00;97799.38;5136309;27;20674;-64
2021/11/30 08:57:19;;;;;;;2.70;1.90;;;;;;;1.47;100.00;97802.22;5140316;27;20221;-63
2021/11/30 08:59:46;;;;;;;2.43;2.10;;;;;;;1.45;100.00;97798.81;5137251;27;20689;-64
2021/11/30 09:02:15;;;;;;;4.53;2.10;;;;;;;1.41;100.00;97797.25;5135671;27;20213;-63
2021/11/30 09:04:42;;;;;;;3.57;2.37;;;;;;;1.41;100.00;97791.19;5137180;27;20237;-64
2021/11/30 09:07:08;;;;;;;2.20;1.93;;;;;;;1.38;100.00;97797.38;5139205;27;20205;-64
2021/11/30 09:09:35;;;;;;;3.07;2.13;;;;;;;1.41;100.00;97789.44;5136811;27;20214;-64
2021/11/30 09:12:03;;;;;;;2.20;2.00;;;;;;;1.44;100.00;97797.13;5136150;27;20209;-64
2021/11/30 09:14:30;;;;;;;2.37;1.90;;;;;;;1.47;100.00;97794.41;5134751;27;20217;-64
2021/11/30 09:16:57;;;;;;;2.13;1.93;;;;;;;1.60;100.00;97795.63;5134467;27;20217;-64
2021/11/30 09:19:25;;;;;;;2.10;1.90;;;;;;;1.61;100.00;97794.69;5137627;27;20223;-63
2021/11/30 09:21:52;;;;;;;3.30;2.00;;;;;;;1.66;100.00;97790.16;5136147;27;20292;-64
2021/11/30 09:24:19;;;;;;;2.00;1.80;;;;;;;1.66;100.00;97787.56;5135450;27;20247;-65
2021/11/30 09:26:46;;;;;;;3.90;2.27;;;;;;;1.69;100.00;97787.44;5136863;27;20205;-64
2021/11/30 09:29:14;;;;;;;2.20;2.00;;;;;;;1.69;100.00;97784.00;5138154;27;20213;-65
2021/11/30 09:31:41;;;;;;;1.77;1.67;;;;;;;1.75;100.00;97782.00;5138822;27;20304;-64
2021/11/30 09:34:08;;;;;;;1.90;1.80;;;;;;;1.78;100.00;97786.25;5136700;27;20215;-64
2021/11/30 09:36:35;;;;;;;2.50;1.93;;;;;;;1.83;100.00;97769.50;5136309;27;20689;-64
2021/11/30 09:39:05;;;;;;;2.10;1.80;;;;;;;1.90;100.00;97776.16;5135620;27;20213;-65
2021/11/30 09:41:32;;;;;;;1.90;1.70;;;;;;;1.89;100.00;97774.47;5136692;27;20297;-64
2021/11/30 09:43:58;;;;;;;1.70;1.60;;;;;;;1.91;100.00;97777.84;5127867;27;20237;-65
2021/11/30 09:46:26;;;;;;;2.27;2.00;;;;;;;1.94;100.00;97777.75;5143085;27;20232;-65
2021/11/30 09:48:54;;;;;;;1.97;1.80;;;;;;;1.96;100.00;97770.69;5148910;27;20240;-66
2021/11/30 09:51:22;;;;;;;1.73;1.40;;;;;;;1.97;100.00;97761.97;5149012;27;20285;-65
2021/11/30 09:53:49;;;;;;;1.50;1.40;;;;;;;1.98;100.00;97758.47;5145877;27;20587;-65
2021/11/30 09:56:16;;;;;;;1.50;1.40;;;;;;;2.05;100.00;97749.47;5145537;27;20213;-66
2021/11/30 09:58:43;;;;;;;1.37;1.27;;;;;;;2.07;100.00;97745.03;5148904;27;20221;-65
2021/11/30 10:01:12;;;;;;;1.30;1.20;;;;;;;2.12;100.00;97740.50;5149000;27;20629;-66
2021/11/30 10:03:41;;;;;;;1.67;1.40;;;;;;;2.16;100.00;97742.06;5145956;27;20915;-66
2021/11/30 10:06:09;;;;;;;1.50;1.30;;;;;;;2.20;100.00;97745.38;5135044;27;20248;-66
2021/11/30 10:08:40;;;;;;;2.03;1.20;;;;;;;2.12;100.00;97748.31;5147080;27;20215;-66
2021/11/30 10:11:10;;;;;;;1.60;1.50;;;;;;;2.17;100.00;97755.94;5148598;27;20308;-66
2021/11/30 10:13:36;;;;;;;1.67;1.13;;;;;;;2.20;100.00;97754.03;5144279;27;20587;-66
2021/11/30 10:16:05;;;;;;;1.37;1.27;;;;;;;2.30;100.00;97738.84;5146669;27;20209;-65
2021/11/30 10:18:34;;;;;;;1.20;1.10;;;;;;;2.33;100.00;97736.97;5148245;27;20220;-65
2021/11/30 10:21:20;;;;;;;1.80;1.23;;;;;;;2.31;100.00;97736.19;5148593;27;20308;-65
2021/11/30 10:23:49;;;;;;;1.20;1.10;;;;;;;2.25;100.00;97736.44;5141635;27;20209;-64
2021/11/30 10:26:18;;;;;;;1.40;1.20;;;;;;;2.18;100.00;97723.72;5148266;27;20772;-65
2021/11/30 10:28:44;;;;;;;1.20;1.10;;;;;;;2.17;100.00;97722.03;5148307;27;20296;-65
2021/11/30 10:31:11;;;;;;;1.33;1.23;;;;;;;2.17;100.00;97717.69;5145621;27;20300;-65
2021/11/30 10:33:38;;;;;;;1.77;0.87;;;;;;;2.19;100.00;97715.84;5145290;27;20696;-65
2021/11/30 10:36:05;;;;;;;1.10;0.93;;;;;;;2.20;100.00;97716.72;5141790;27;20213;-65
2021/11/30 10:38:37;;;;;;;1.10;1.00;;;;;;;2.16;100.00;97707.31;5133855;27;20209;-65
2021/11/30 10:41:18;;;;;;;1.87;0.90;;;;;;;2.18;100.00;97708.94;5133567;27;20706;-64
2021/11/30 10:43:53;;;;;;;2.63;0.90;;;;;;;2.10;100.00;97691.94;5133736;27;20217;-65
2021/11/30 10:46:27;;;;;;;1.47;1.10;;;;;;;2.09;100.00;97698.91;5133787;27;20320;-64
2021/11/30 10:48:55;;;;;;;1.43;0.90;;;;;;;2.07;100.00;97690.31;5133431;27;20244;-64
2021/11/30 10:51:23;;;;;;;0.90;0.90;;;;;;;2.07;100.00;97690.31;5135002;27;20217;-65
2021/11/30 10:53:56;;;;;;;0.93;0.87;;;;;;;2.06;100.00;97688.63;5148142;27;20303;-64
2021/11/30 10:56:22;;;;;;;0.77;0.77;;;;;;;2.06;100.00;97683.41;5148295;27;20215;-64
2021/11/30 10:58:54;;;;;;;0.80;0.80;;;;;;;2.15;100.00;97682.19;5132582;27;20210;-64
2021/11/30 11:01:22;;;;;;;0.70;0.70;;;;;;;2.15;100.00;97688.22;5144030;27;20215;-64
2021/11/30 11:04:01;;;;;;;0.70;0.70;;;;;;;2.18;100.00;97688.09;5143992;27;20205;-64
2021/11/30 11:06:30;;;;;;;0.93;0.90;;;;;;;2.18;100.00;97693.31;5142539;27;20237;-64
2021/11/30 11:09:03;;;;;;;1.00;0.90;;;;;;;2.20;100.00;97691.47;5130599;27;20214;-64
2021/11/30 11:11:32;;;;;;;1.10;0.77;;;;;;;2.20;100.00;97686.25;5132795;27;20209;-64
2021/11/30 11:13:58;;;;;;;0.80;0.80;;;;;;;2.30;100.00;97682.34;5131902;28;20239;-64
2021/11/30 11:16:30;;;;;;;0.80;0.80;;;;;;;2.27;100.00;97668.59;5132433;28;20205;-64
2021/11/30 11:18:59;;;;;;;0.97;0.87;;;;;;;2.27;100.00;97666.00;5132000;28;20267;-64
2021/11/30 11:21:29;;;;;;;0.90;0.80;;;;;;;2.24;100.00;97664.38;5130722;27;20304;-64
2021/11/30 11:24:03;;;;;;;0.70;0.70;;;;;;;2.32;100.00;97664.88;5134594;27;20216;-64
2021/11/30 11:26:33;;;;;;;0.93;0.90;;;;;;;2.33;100.00;97661.34;5126825;27;20320;-64
2021/11/30 11:29:04;;;;;;;0.80;0.80;;;;;;;2.32;100.00;97659.66;5137250;27;20638;-65
2021/11/30 11:31:31;;;;;;;1.27;0.83;;;;;;;2.34;100.00;97663.03;5141199;27;20220;-64
2021/11/30 11:34:00;;;;;;;1.23;0.70;;;;;;;2.32;100.00;97664.03;5142786;27;20685;-63
2021/11/30 11:36:27;;;;;;;0.80;0.80;;;;;;;2.39;100.00;97655.84;5141559;27;20639;-63
2021/11/30 11:38:54;;;;;;;1.73;0.80;;;;;;;2.42;100.00;97650.53;5134083;27;20210;-63
2021/11/30 11:41:23;;;;;;;2.00;0.87;;;;;;;2.47;100.00;97648.56;5143436;27;20694;-63